sensor_id;sensor_type;location;lat;lon;timestamp;pressure;altitude;pressure_sealevel;temperature;humidity
52319;BME280;38258;51.148;14.068;2024-01-10T00:02:19;99837.00;;;-11.47;100.00
52319;BME280;38258;51.148;14.068;2024-01-10T00:04:45;99837.03;;;-11.37;100.00
52319;BME280;38258;51.148;14.068;2024-01-10T00:07:12;99826.03;;;-11.37;100.00
52319;BME280;38258;51.148;14.068;2024-01-10T00:09:38;99831.69;;;-11.29;100.00
52319;BME280;38258;51.148;14.068;2024-01-10T00:12:07;99833.88;;;-11.44;100.00
52319;BME280;38258;51.148;14.068;2024-01-10T00:14:33;99837.13;;;-11.35;100.00
52319;BME280;38258;51.148;14.068;2024-01-10T00:17:00;99829.31;;;-11.48;100.00
52319;BME280;38258;51.148;14.068;2024-01-10T00:19:27;99831.09;;;-11.58;100.00
52319;BME280;38258;51.148;14.068;2024-01-10T00:21:54;99824.75;;;-11.63;100.00
52319;BME280;38258;51.148;14.068;2024-01-10T00:24:20;99824.28;;;-11.59;100.00
52319;BME280;38258;51.148;14.068;2024-01-10T00:26:47;99821.84;;;-11.57;100.00
52319;BME280;38258;51.148;14.068;2024-01-10T00:29:15;99818.06;;;-11.73;100.00
52319;BME280;38258;51.148;14.068;2024-01-10T00:31:41;99818.19;;;-11.82;100.00
52319;BME280;38258;51.148;14.068;2024-01-10T00:34:08;99830.69;;;-11.83;100.00
52319;BME280;38258;51.148;14.068;2024-01-10T00:36:35;99825.63;;;-11.94;100.00
52319;BME280;38258;51.148;14.068;2024-01-10T00:39:02;99823.59;;;-11.87;100.00
52319;BME280;38258;51.148;14.068;2024-01-10T00:41:28;99822.75;;;-11.88;100.00
52319;BME280;38258;51.148;14.068;2024-01-10T00:43:55;99819.81;;;-12.03;100.00
52319;BME280;38258;51.148;14.068;2024-01-10T00:46:23;99813.75;;;-12.15;100.00
52319;BME280;38258;51.148;14.068;2024-01-10T00:48:50;99824.34;;;-12.19;100.00
52319;BME280;38258;51.148;14.068;2024-01-10T00:51:16;99816.16;;;-12.17;100.00
52319;BME280;38258;51.148;14.068;2024-01-10T00:53:43;99817.66;;;-12.19;100.00
52319;BME280;38258;51.148;14.068;2024-01-10T00:56:09;99819.19;;;-12.11;100.00
52319;BME280;38258;51.148;14.068;2024-01-10T00:58:37;99822.06;;;-12.16;100.00
52319;BME280;38258;51.148;14.068;2024-01-10T01:01:03;99818.69;;;-12.07;100.00
52319;BME280;38258;51.148;14.068;2024-01-10T01:03:31;99815.78;;;-12.11;100.00
52319;BME280;38258;51.148;14.068;2024-01-10T01:05:58;99815.63;;;-12.23;100.00
52319;BME280;38258;51.148;14.068;2024-01-10T01:08:25;99829.50;;;-12.28;100.00
52319;BME280;38258;51.148;14.068;2024-01-10T01:10:51;99824.09;;;-12.23;100.00
52319;BME280;38258;51.148;14.068;2024-01-10T01:13:18;99826.44;;;-12.34;100.00
52319;BME280;38258;51.148;14.068;2024-01-10T01:15:44;99821.16;;;-12.27;100.00
52319;BME280;38258;51.148;14.068;2024-01-10T01:18:11;99833.91;;;-12.26;100.00
52319;BME280;38258;51.148;14.068;2024-01-10T01:20:39;99831.00;;;-12.20;100.00
52319;BME280;38258;51.148;14.068;2024-01-10T01:23:06;99832.88;;;-12.28;100.00
52319;BME280;38258;51.148;14.068;2024-01-10T01:25:32;99829.25;;;-12.21;100.00
52319;BME280;38258;51.148;14.068;2024-01-10T01:27:59;99822.53;;;-12.31;100.00
52319;BME280;38258;51.148;14.068;2024-01-10T01:30:26;99814.22;;;-12.40;100.00
52319;BME280;38258;51.148;14.068;2024-01-10T01:32:52;99814.94;;;-12.41;100.00
52319;BME280;38258;51.148;14.068;2024-01-10T01:35:19;99813.31;;;-12.41;100.00
52319;BME280;38258;51.148;14.068;2024-01-10T01:37:49;99815.44;;;-12.45;100.00
52319;BME280;38258;51.148;14.068;2024-01-10T01:40:18;99810.63;;;-12.42;100.00
52319;BME280;38258;51.148;14.068;2024-01-10T01:42:45;99819.78;;;-12.24;100.00
52319;BME280;38258;51.148;14.068;2024-01-10T01:45:12;99818.00;;;-12.35;100.00
52319;BME280;38258;51.148;14.068;2024-01-10T01:47:39;99809.16;;;-12.40;100.00
52319;BME280;38258;51.148;14.068;2024-01-10T01:50:07;99812.59;;;-12.59;100.00
52319;BME280;38258;51.148;14.068;2024-01-10T01:52:33;99814.41;;;-12.47;100.00
52319;BME280;38258;51.148;14.068;2024-01-10T01:55:02;99825.00;;;-12.41;100.00
52319;BME280;38258;51.148;14.068;2024-01-10T01:57:30;99823.66;;;-12.38;100.00
52319;BME280;38258;51.148;14.068;2024-01-10T01:59:57;99820.47;;;-12.45;100.00
52319;BME280;38258;51.148;14.068;2024-01-10T02:02:24;99813.81;;;-12.45;100.00
52319;BME280;38258;51.148;14.068;2024-01-10T02:04:51;99820.91;;;-12.60;100.00
52319;BME280;38258;51.148;14.068;2024-01-10T02:07:18;99828.38;;;-12.61;100.00
52319;BME280;38258;51.148;14.068;2024-01-10T02:09:44;99813.59;;;-12.67;100.00
52319;BME280;38258;51.148;14.068;2024-01-10T02:12:13;99819.75;;;-12.64;100.00
52319;BME280;38258;51.148;14.068;2024-01-10T02:14:40;99823.59;;;-12.58;100.00
52319;BME280;38258;51.148;14.068;2024-01-10T02:17:07;99810.63;;;-12.53;100.00
52319;BME280;38258;51.148;14.068;2024-01-10T02:19:34;99815.47;;;-12.65;100.00
52319;BME280;38258;51.148;14.068;2024-01-10T02:22:01;99816.22;;;-12.66;100.00
52319;BME280;38258;51.148;14.068;2024-01-10T02:24:28;99808.75;;;-12.74;100.00
52319;BME280;38258;51.148;14.068;2024-01-10T02:26:56;99816.50;;;-12.62;100.00
52319;BME280;38258;51.148;14.068;2024-01-10T02:29:23;99813.84;;;-12.64;100.00
52319;BME280;38258;51.148;14.068;2024-01-10T02:31:49;99808.66;;;-12.76;100.00
52319;BME280;38258;51.148;14.068;2024-01-10T02:34:16;99811.16;;;-12.76;100.00
52319;BME280;38258;51.148;14.068;2024-01-10T02:36:43;99814.97;;;-12.71;100.00
52319;BME280;38258;51.148;14.068;2024-01-10T02:39:09;99812.84;;;-12.56;100.00
52319;BME280;38258;51.148;14.068;2024-01-10T02:41:36;99801.38;;;-12.62;100.00
52319;BME280;38258;51.148;14.068;2024-01-10T02:44:04;99803.78;;;-12.64;100.00
52319;BME280;38258;51.148;14.068;2024-01-10T02:46:31;99806.81;;;-12.58;100.00
52319;BME280;38258;51.148;14.068;2024-01-10T02:48:57;99803.63;;;-12.66;100.00
52319;BME280;38258;51.148;14.068;2024-01-10T02:51:27;99808.22;;;-12.61;100.00
52319;BME280;38258;51.148;14.068;2024-01-10T02:53:55;99810.28;;;-12.47;100.00
52319;BME280;38258;51.148;14.068;2024-01-10T02:56:22;99807.25;;;-12.43;100.00
52319;BME280;38258;51.148;14.068;2024-01-10T02:58:48;99810.13;;;-12.48;100.00
52319;BME280;38258;51.148;14.068;2024-01-10T03:01:16;99806.25;;;-12.34;100.00
52319;BME280;38258;51.148;14.068;2024-01-10T03:03:43;99803.25;;;-12.30;100.00
52319;BME280;38258;51.148;14.068;2024-01-10T03:06:09;99799.09;;;-12.30;100.00
52319;BME280;38258;51.148;14.068;2024-01-10T03:08:36;99792.41;;;-12.29;100.00
52319;BME280;38258;51.148;14.068;2024-01-10T03:11:03;99789.84;;;-12.40;100.00
52319;BME280;38258;51.148;14.068;2024-01-10T03:13:29;99787.13;;;-12.32;100.00
52319;BME280;38258;51.148;14.068;2024-01-10T03:15:56;99782.44;;;-12.38;100.00
52319;BME280;38258;51.148;14.068;2024-01-10T03:18:24;99776.25;;;-12.42;100.00
52319;BME280;38258;51.148;14.068;2024-01-10T03:20:50;99773.47;;;-12.34;100.00
52319;BME280;38258;51.148;14.068;2024-01-10T03:23:17;99776.13;;;-12.33;100.00
52319;BME280;38258;51.148;14.068;2024-01-10T03:25:44;99775.34;;;-12.42;100.00
52319;BME280;38258;51.148;14.068;2024-01-10T03:28:10;99767.91;;;-12.41;100.00
52319;BME280;38258;51.148;14.068;2024-01-10T03:30:41;99771.84;;;-12.34;100.00
52319;BME280;38258;51.148;14.068;2024-01-10T03:33:08;99762.78;;;-12.22;100.00
52319;BME280;38258;51.148;14.068;2024-01-10T03:35:36;99768.22;;;-12.27;100.00
52319;BME280;38258;51.148;14.068;2024-01-10T03:38:02;99757.13;;;-12.09;100.00
52319;BME280;38258;51.148;14.068;2024-01-10T03:40:29;99761.16;;;-12.11;100.00
52319;BME280;38258;51.148;14.068;2024-01-10T03:42:56;99764.53;;;-12.31;100.00
52319;BME280;38258;51.148;14.068;2024-01-10T03:45:23;99762.63;;;-12.44;100.00
52319;BME280;38258;51.148;14.068;2024-01-10T03:47:50;99760.59;;;-12.38;100.00
52319;BME280;38258;51.148;14.068;2024-01-10T03:50:17;99768.28;;;-12.46;100.00
52319;BME280;38258;51.148;14.068;2024-01-10T03:52:46;99761.16;;;-12.31;100.00
52319;BME280;38258;51.148;14.068;2024-01-10T03:55:13;99761.63;;;-12.36;100.00
52319;BME280;38258;51.148;14.068;2024-01-10T03:57:40;99752.06;;;-12.29;100.00
52319;BME280;38258;51.148;14.068;2024-01-10T04:00:08;99758.25;;;-12.15;100.00
52319;BME280;38258;51.148;14.068;2024-01-10T04:02:36;99752.19;;;-12.17;100.00
52319;BME280;38258;51.148;14.068;2024-01-10T04:05:06;99752.94;;;-12.29;100.00
52319;BME280;38258;51.148;14.068;2024-01-10T04:07:33;99749.69;;;-12.17;100.00
52319;BME280;38258;51.148;14.068;2024-01-10T04:10:01;99751.34;;;-12.18;100.00
52319;BME280;38258;51.148;14.068;2024-01-10T04:12:27;99748.41;;;-12.12;100.00
52319;BME280;38258;51.148;14.068;2024-01-10T04:14:54;99746.28;;;-12.18;100.00
52319;BME280;38258;51.148;14.068;2024-01-10T04:17:21;99749.69;;;-12.07;100.00
52319;BME280;38258;51.148;14.068;2024-01-10T04:19:47;99752.97;;;-12.08;100.00
52319;BME280;38258;51.148;14.068;2024-01-10T04:22:14;99750.81;;;-12.14;100.00
52319;BME280;38258;51.148;14.068;2024-01-10T04:24:41;99749.81;;;-12.16;100.00
52319;BME280;38258;51.148;14.068;2024-01-10T04:27:09;99758.25;;;-12.15;100.00
52319;BME280;38258;51.148;14.068;2024-01-10T04:29:35;99751.44;;;-12.16;100.00
52319;BME280;38258;51.148;14.068;2024-01-10T04:32:02;99753.72;;;-12.09;100.00
52319;BME280;38258;51.148;14.068;2024-01-10T04:34:29;99747.69;;;-12.11;100.00
52319;BME280;38258;51.148;14.068;2024-01-10T04:36:56;99744.41;;;-12.10;100.00
52319;BME280;38258;51.148;14.068;2024-01-10T04:39:22;99755.44;;;-12.29;100.00
52319;BME280;38258;51.148;14.068;2024-01-10T04:41:49;99751.81;;;-12.32;100.00
52319;BME280;38258;51.148;14.068;2024-01-10T04:44:17;99745.50;;;-12.27;100.00
52319;BME280;38258;51.148;14.068;2024-01-10T04:46:44;99745.00;;;-12.23;100.00
52319;BME280;38258;51.148;14.068;2024-01-10T04:49:11;99749.91;;;-12.35;100.00
52319;BME280;38258;51.148;14.068;2024-01-10T04:51:38;99756.72;;;-12.34;100.00
52319;BME280;38258;51.148;14.068;2024-01-10T04:54:05;99754.44;;;-12.31;100.00
52319;BME280;38258;51.148;14.068;2024-01-10T04:56:32;99748.00;;;-12.38;100.00
52319;BME280;38258;51.148;14.068;2024-01-10T04:58:59;99749.75;;;-12.37;100.00
52319;BME280;38258;51.148;14.068;2024-01-10T05:01:27;99754.69;;;-12.28;100.00
52319;BME280;38258;51.148;14.068;2024-01-10T05:03:54;99755.44;;;-12.39;100.00
52319;BME280;38258;51.148;14.068;2024-01-10T05:06:21;99760.22;;;-12.42;100.00
52319;BME280;38258;51.148;14.068;2024-01-10T05:08:48;99764.63;;;-12.40;100.00
52319;BME280;38258;51.148;14.068;2024-01-10T05:11:15;99762.50;;;-12.35;100.00
52319;BME280;38258;51.148;14.068;2024-01-10T05:13:42;99767.16;;;-12.40;100.00
52319;BME280;38258;51.148;14.068;2024-01-10T05:16:09;99770.66;;;-12.48;100.00
52319;BME280;38258;51.148;14.068;2024-01-10T05:18:37;99765.38;;;-12.51;100.00
52319;BME280;38258;51.148;14.068;2024-01-10T05:21:04;99762.09;;;-12.50;100.00
52319;BME280;38258;51.148;14.068;2024-01-10T05:23:30;99768.94;;;-12.39;100.00
52319;BME280;38258;51.148;14.068;2024-01-10T05:25:57;99758.59;;;-12.42;100.00
52319;BME280;38258;51.148;14.068;2024-01-10T05:28:24;99768.13;;;-12.48;100.00
52319;BME280;38258;51.148;14.068;2024-01-10T05:30:51;99770.28;;;-12.53;100.00
52319;BME280;38258;51.148;14.068;2024-01-10T05:33:17;99767.13;;;-12.50;100.00
52319;BME280;38258;51.148;14.068;2024-01-10T05:35:46;99770.47;;;-12.70;100.00
52319;BME280;38258;51.148;14.068;2024-01-10T05:38:12;99765.91;;;-12.74;100.00
52319;BME280;38258;51.148;14.068;2024-01-10T05:40:39;99763.19;;;-12.67;100.00
52319;BME280;38258;51.148;14.068;2024-01-10T05:43:06;99763.75;;;-12.51;100.00
52319;BME280;38258;51.148;14.068;2024-01-10T05:45:32;99763.94;;;-12.58;100.00
52319;BME280;38258;51.148;14.068;2024-01-10T05:47:59;99764.75;;;-12.48;100.00
52319;BME280;38258;51.148;14.068;2024-01-10T05:50:26;99769.91;;;-12.57;100.00
52319;BME280;38258;51.148;14.068;2024-01-10T05:52:54;99771.34;;;-12.40;100.00
52319;BME280;38258;51.148;14.068;2024-01-10T05:55:20;99769.34;;;-12.24;100.00
52319;BME280;38258;51.148;14.068;2024-01-10T05:57:48;99770.94;;;-12.34;100.00
52319;BME280;38258;51.148;14.068;2024-01-10T06:00:16;99769.78;;;-12.48;100.00
52319;BME280;38258;51.148;14.068;2024-01-10T06:02:43;99766.72;;;-12.65;100.00
52319;BME280;38258;51.148;14.068;2024-01-10T06:05:10;99772.88;;;-12.72;100.00
52319;BME280;38258;51.148;14.068;2024-01-10T06:07:37;99770.41;;;-12.51;100.00
52319;BME280;38258;51.148;14.068;2024-01-10T06:10:07;99768.25;;;-12.57;100.00
52319;BME280;38258;51.148;14.068;2024-01-10T06:12:35;99771.00;;;-12.64;100.00
52319;BME280;38258;51.148;14.068;2024-01-10T06:15:03;99772.81;;;-12.42;100.00
52319;BME280;38258;51.148;14.068;2024-01-10T06:17:29;99778.91;;;-12.40;100.00
52319;BME280;38258;51.148;14.068;2024-01-10T06:19:56;99774.00;;;-12.28;100.00
52319;BME280;38258;51.148;14.068;2024-01-10T06:22:24;99763.25;;;-12.46;100.00
52319;BME280;38258;51.148;14.068;2024-01-10T06:24:51;99771.69;;;-12.46;100.00
52319;BME280;38258;51.148;14.068;2024-01-10T06:27:19;99770.72;;;-12.27;100.00
52319;BME280;38258;51.148;14.068;2024-01-10T06:29:46;99762.91;;;-12.30;100.00
52319;BME280;38258;51.148;14.068;2024-01-10T06:32:12;99755.72;;;-12.36;100.00
52319;BME280;38258;51.148;14.068;2024-01-10T06:34:39;99757.44;;;-12.45;100.00
52319;BME280;38258;51.148;14.068;2024-01-10T06:37:06;99756.22;;;-12.40;100.00
52319;BME280;38258;51.148;14.068;2024-01-10T06:39:33;99762.38;;;-12.47;100.00
52319;BME280;38258;51.148;14.068;2024-01-10T06:42:00;99769.19;;;-12.46;100.00
52319;BME280;38258;51.148;14.068;2024-01-10T06:44:30;99772.81;;;-12.42;100.00
52319;BME280;38258;51.148;14.068;2024-01-10T06:46:57;99766.03;;;-12.33;100.00
52319;BME280;38258;51.148;14.068;2024-01-10T06:49:23;99769.66;;;-12.50;100.00
52319;BME280;38258;51.148;14.068;2024-01-10T06:51:50;99770.19;;;-12.44;100.00
52319;BME280;38258;51.148;14.068;2024-01-10T06:54:16;99763.50;;;-12.43;100.00
52319;BME280;38258;51.148;14.068;2024-01-10T06:56:44;99769.31;;;-12.34;100.00
52319;BME280;38258;51.148;14.068;2024-01-10T06:59:11;99758.50;;;-12.23;100.00
52319;BME280;38258;51.148;14.068;2024-01-10T07:01:39;99773.75;;;-12.31;100.00
52319;BME280;38258;51.148;14.068;2024-01-10T07:04:06;99767.66;;;-12.44;100.00
52319;BME280;38258;51.148;14.068;2024-01-10T07:06:32;99774.34;;;-12.44;100.00
52319;BME280;38258;51.148;14.068;2024-01-10T07:08:59;99772.59;;;-12.35;100.00
52319;BME280;38258;51.148;14.068;2024-01-10T07:11:25;99760.50;;;-12.39;100.00
52319;BME280;38258;51.148;14.068;2024-01-10T07:13:53;99770.22;;;-12.23;100.00
52319;BME280;38258;51.148;14.068;2024-01-10T07:16:20;99771.75;;;-12.15;100.00
52319;BME280;38258;51.148;14.068;2024-01-10T07:18:48;99770.25;;;-12.13;100.00
52319;BME280;38258;51.148;14.068;2024-01-10T07:21:16;99780.06;;;-12.26;100.00
52319;BME280;38258;51.148;14.068;2024-01-10T07:23:43;99783.34;;;-12.27;100.00
52319;BME280;38258;51.148;14.068;2024-01-10T07:26:12;99784.19;;;-12.27;100.00
52319;BME280;38258;51.148;14.068;2024-01-10T07:28:39;99782.47;;;-12.17;100.00
52319;BME280;38258;51.148;14.068;2024-01-10T07:31:07;99777.41;;;-12.17;100.00
52319;BME280;38258;51.148;14.068;2024-01-10T07:33:33;99772.53;;;-12.16;100.00
52319;BME280;38258;51.148;14.068;2024-01-10T07:36:02;99777.44;;;-11.97;100.00
52319;BME280;38258;51.148;14.068;2024-01-10T07:38:28;99767.97;;;-11.99;100.00
52319;BME280;38258;51.148;14.068;2024-01-10T07:40:55;99773.25;;;-11.96;100.00
52319;BME280;38258;51.148;14.068;2024-01-10T07:43:22;99769.84;;;-11.76;100.00
52319;BME280;38258;51.148;14.068;2024-01-10T07:45:48;99761.00;;;-11.50;100.00
52319;BME280;38258;51.148;14.068;2024-01-10T07:48:15;99766.91;;;-11.18;100.00
52319;BME280;38258;51.148;14.068;2024-01-10T07:50:42;99767.72;;;-10.97;100.00
52319;BME280;38258;51.148;14.068;2024-01-10T07:53:10;99763.59;;;-10.74;100.00
52319;BME280;38258;51.148;14.068;2024-01-10T07:55:36;99760.84;;;-10.55;100.00
52319;BME280;38258;51.148;14.068;2024-01-10T07:58:03;99765.13;;;-10.32;100.00
52319;BME280;38258;51.148;14.068;2024-01-10T08:00:30;99761.88;;;-9.97;100.00
52319;BME280;38258;51.148;14.068;2024-01-10T08:02:57;99762.34;;;-9.78;100.00
52319;BME280;38258;51.148;14.068;2024-01-10T08:05:24;99757.00;;;-9.47;100.00
52319;BME280;38258;51.148;14.068;2024-01-10T08:07:51;99757.69;;;-9.50;100.00
52319;BME280;38258;51.148;14.068;2024-01-10T08:10:19;99748.75;;;-9.45;100.00
52319;BME280;38258;51.148;14.068;2024-01-10T08:12:45;99754.84;;;-8.95;100.00
52319;BME280;38258;51.148;14.068;2024-01-10T08:15:12;99746.16;;;-8.49;100.00
52319;BME280;38258;51.148;14.068;2024-01-10T08:17:39;99748.38;;;-8.29;100.00
52319;BME280;38258;51.148;14.068;2024-01-10T08:20:07;99741.75;;;-7.76;100.00
52319;BME280;38258;51.148;14.068;2024-01-10T08:22:36;99735.81;;;-7.24;100.00
52319;BME280;38258;51.148;14.068;2024-01-10T08:25:03;99740.00;;;-7.11;100.00
52319;BME280;38258;51.148;14.068;2024-01-10T08:27:31;99736.13;;;-6.50;100.00
52319;BME280;38258;51.148;14.068;2024-01-10T08:29:58;99737.56;;;-6.12;100.00
52319;BME280;38258;51.148;14.068;2024-01-10T08:32:25;99748.44;;;-6.00;100.00
52319;BME280;38258;51.148;14.068;2024-01-10T08:34:51;99739.81;;;-5.58;100.00
52319;BME280;38258;51.148;14.068;2024-01-10T08:37:18;99740.25;;;-5.05;100.00
52319;BME280;38258;51.148;14.068;2024-01-10T08:39:45;99740.44;;;-4.71;100.00
52319;BME280;38258;51.148;14.068;2024-01-10T08:42:11;99743.19;;;-4.34;100.00
52319;BME280;38258;51.148;14.068;2024-01-10T08:44:39;99751.50;;;-4.70;100.00
52319;BME280;38258;51.148;14.068;2024-01-10T08:47:06;99746.88;;;-3.79;100.00
52319;BME280;38258;51.148;14.068;2024-01-10T08:49:33;99740.72;;;-3.66;100.00
52319;BME280;38258;51.148;14.068;2024-01-10T08:51:59;99742.34;;;-2.04;98.03
52319;BME280;38258;51.148;14.068;2024-01-10T08:54:26;99725.84;;;-1.07;92.26
52319;BME280;38258;51.148;14.068;2024-01-10T08:56:52;99741.75;;;-1.57;93.49
52319;BME280;38258;51.148;14.068;2024-01-10T08:59:19;99742.22;;;-1.87;91.63
52319;BME280;38258;51.148;14.068;2024-01-10T09:01:47;99745.34;;;-1.73;91.07
52319;BME280;38258;51.148;14.068;2024-01-10T09:04:14;99739.69;;;-1.66;84.10
52319;BME280;38258;51.148;14.068;2024-01-10T09:06:40;99750.41;;;-2.34;89.22
52319;BME280;38258;51.148;14.068;2024-01-10T09:09:07;99733.44;;;-1.92;90.85
52319;BME280;38258;51.148;14.068;2024-01-10T09:11:34;99744.38;;;-1.77;94.62
52319;BME280;38258;51.148;14.068;2024-01-10T09:14:00;99739.91;;;-1.19;91.91
52319;BME280;38258;51.148;14.068;2024-01-10T09:16:27;99737.56;;;0.00;86.49
52319;BME280;38258;51.148;14.068;2024-01-10T09:18:55;99733.81;;;0.66;80.03
52319;BME280;38258;51.148;14.068;2024-01-10T09:21:22;99734.03;;;1.00;77.36
52319;BME280;38258;51.148;14.068;2024-01-10T09:23:49;99742.19;;;1.41;71.49
52319;BME280;38258;51.148;14.068;2024-01-10T09:26:16;99729.06;;;0.79;70.94
52319;BME280;38258;51.148;14.068;2024-01-10T09:28:43;99722.03;;;2.52;68.20
52319;BME280;38258;51.148;14.068;2024-01-10T09:31:10;99731.66;;;1.63;67.24
52319;BME280;38258;51.148;14.068;2024-01-10T09:33:36;99728.84;;;1.86;65.12
52319;BME280;38258;51.148;14.068;2024-01-10T09:36:05;99728.47;;;1.43;68.86
52319;BME280;38258;51.148;14.068;2024-01-10T09:38:34;99727.34;;;1.34;73.25
52319;BME280;38258;51.148;14.068;2024-01-10T09:41:02;99726.72;;;1.41;72.09
52319;BME280;38258;51.148;14.068;2024-01-10T09:43:30;99719.00;;;1.72;67.96
52319;BME280;38258;51.148;14.068;2024-01-10T09:46:00;99720.19;;;1.24;67.60
52319;BME280;38258;51.148;14.068;2024-01-10T09:48:27;99713.56;;;1.92;69.46
52319;BME280;38258;51.148;14.068;2024-01-10T09:50:55;99702.97;;;3.60;63.48
52319;BME280;38258;51.148;14.068;2024-01-10T09:53:24;99715.66;;;4.35;58.92
52319;BME280;38258;51.148;14.068;2024-01-10T09:55:52;99706.06;;;3.04;58.64
52319;BME280;38258;51.148;14.068;2024-01-10T09:58:22;99709.03;;;2.84;59.36
52319;BME280;38258;51.148;14.068;2024-01-10T10:00:49;99705.22;;;4.83;58.76
52319;BME280;38258;51.148;14.068;2024-01-10T10:03:17;99706.97;;;3.07;60.56
52319;BME280;38258;51.148;14.068;2024-01-10T10:05:44;99707.16;;;2.77;57.74
52319;BME280;38258;51.148;14.068;2024-01-10T10:08:12;99704.53;;;4.41;56.61
52319;BME280;38258;51.148;14.068;2024-01-10T10:10:41;99711.31;;;4.85;58.01
52319;BME280;38258;51.148;14.068;2024-01-10T10:13:10;99706.47;;;4.05;59.40
52319;BME280;38258;51.148;14.068;2024-01-10T10:15:37;99695.72;;;6.10;53.38
52319;BME280;38258;51.148;14.068;2024-01-10T10:18:03;99703.56;;;5.45;52.86
52319;BME280;38258;51.148;14.068;2024-01-10T10:20:31;99702.47;;;5.96;49.10
52319;BME280;38258;51.148;14.068;2024-01-10T10:22:59;99706.00;;;5.34;47.20
52319;BME280;38258;51.148;14.068;2024-01-10T10:28:02;99705.41;;;4.94;42.61
52319;BME280;38258;51.148;14.068;2024-01-10T10:30:30;99709.53;;;5.40;45.22
52319;BME280;38258;51.148;14.068;2024-01-10T10:32:57;99705.22;;;5.38;45.89
52319;BME280;38258;51.148;14.068;2024-01-10T10:35:24;99710.19;;;5.24;45.48
52319;BME280;38258;51.148;14.068;2024-01-10T10:37:52;99711.31;;;3.88;45.32
52319;BME280;38258;51.148;14.068;2024-01-10T10:40:20;99704.84;;;4.10;44.55
52319;BME280;38258;51.148;14.068;2024-01-10T10:42:47;99708.25;;;4.56;42.99
52319;BME280;38258;51.148;14.068;2024-01-10T10:45:17;99717.13;;;4.22;43.14
52319;BME280;38258;51.148;14.068;2024-01-10T10:47:45;99712.84;;;3.78;43.18
52319;BME280;38258;51.148;14.068;2024-01-10T10:50:20;99729.50;;;2.76;44.05
52319;BME280;38258;51.148;14.068;2024-01-10T10:52:48;99720.25;;;3.61;42.78
52319;BME280;38258;51.148;14.068;2024-01-10T10:55:15;99726.44;;;4.11;45.37
52319;BME280;38258;51.148;14.068;2024-01-10T10:57:44;99716.75;;;4.48;43.79
52319;BME280;38258;51.148;14.068;2024-01-10T11:00:12;99719.47;;;4.08;41.47
52319;BME280;38258;51.148;14.068;2024-01-10T11:02:42;99719.16;;;4.90;41.76
52319;BME280;38258;51.148;14.068;2024-01-10T11:05:09;99719.84;;;4.78;43.41
52319;BME280;38258;51.148;14.068;2024-01-10T11:07:37;99721.59;;;3.85;43.94
52319;BME280;38258;51.148;14.068;2024-01-10T11:10:06;99721.41;;;3.76;44.83
52319;BME280;38258;51.148;14.068;2024-01-10T11:12:53;99714.78;;;3.89;46.01
52319;BME280;38258;51.148;14.068;2024-01-10T11:15:37;99706.19;;;3.48;43.96
52319;BME280;38258;51.148;14.068;2024-01-10T11:18:35;99702.13;;;3.60;44.92
52319;BME280;38258;51.148;14.068;2024-01-10T11:21:18;99701.44;;;3.68;45.24
52319;BME280;38258;51.148;14.068;2024-01-10T11:23:48;99705.44;;;3.54;46.17
52319;BME280;38258;51.148;14.068;2024-01-10T11:26:16;99700.00;;;2.66;45.38
52319;BME280;38258;51.148;14.068;2024-01-10T11:28:44;99697.34;;;3.00;48.62
52319;BME280;38258;51.148;14.068;2024-01-10T11:31:13;99699.84;;;2.60;48.73
52319;BME280;38258;51.148;14.068;2024-01-10T11:33:42;99694.25;;;2.78;48.48
52319;BME280;38258;51.148;14.068;2024-01-10T11:36:12;99700.00;;;3.03;48.61
52319;BME280;38258;51.148;14.068;2024-01-10T11:38:47;99695.63;;;3.01;46.14
52319;BME280;38258;51.148;14.068;2024-01-10T11:41:22;99693.09;;;2.65;47.58
52319;BME280;38258;51.148;14.068;2024-01-10T11:46:52;99688.63;;;2.60;49.47
52319;BME280;38258;51.148;14.068;2024-01-10T11:49:22;99685.91;;;2.20;51.01
52319;BME280;38258;51.148;14.068;2024-01-10T11:51:50;99679.19;;;2.26;49.24
52319;BME280;38258;51.148;14.068;2024-01-10T11:54:35;99674.00;;;2.25;50.42
52319;BME280;38258;51.148;14.068;2024-01-10T11:57:02;99673.19;;;2.28;50.11
52319;BME280;38258;51.148;14.068;2024-01-10T11:59:29;99683.34;;;2.21;49.43
52319;BME280;38258;51.148;14.068;2024-01-10T12:01:57;99670.66;;;1.95;53.19
52319;BME280;38258;51.148;14.068;2024-01-10T12:04:25;99665.69;;;2.37;49.07
52319;BME280;38258;51.148;14.068;2024-01-10T12:06:55;99672.88;;;2.15;50.87
52319;BME280;38258;51.148;14.068;2024-01-10T12:09:22;99671.91;;;1.79;53.06
52319;BME280;38258;51.148;14.068;2024-01-10T12:11:49;99677.75;;;2.04;51.74
52319;BME280;38258;51.148;14.068;2024-01-10T12:14:17;99683.41;;;1.60;53.17
52319;BME280;38258;51.148;14.068;2024-01-10T12:16:45;99674.13;;;1.97;52.44
52319;BME280;38258;51.148;14.068;2024-01-10T12:19:12;99671.22;;;1.85;54.25
52319;BME280;38258;51.148;14.068;2024-01-10T12:21:40;99662.66;;;1.86;51.48
52319;BME280;38258;51.148;14.068;2024-01-10T12:24:07;99667.28;;;2.32;51.69
52319;BME280;38258;51.148;14.068;2024-01-10T12:26:33;99669.94;;;2.70;51.60
52319;BME280;38258;51.148;14.068;2024-01-10T12:29:01;99663.53;;;2.91;49.53
52319;BME280;38258;51.148;14.068;2024-01-10T12:31:30;99669.31;;;2.10;50.92
52319;BME280;38258;51.148;14.068;2024-01-10T12:33:57;99664.25;;;2.48;51.42
52319;BME280;38258;51.148;14.068;2024-01-10T12:36:23;99664.84;;;2.73;51.42
52319;BME280;38258;51.148;14.068;2024-01-10T12:38:51;99663.44;;;2.16;50.14
52319;BME280;38258;51.148;14.068;2024-01-10T12:41:19;99659.81;;;2.09;51.77
52319;BME280;38258;51.148;14.068;2024-01-10T12:43:48;99667.47;;;2.39;50.01
52319;BME280;38258;51.148;14.068;2024-01-10T12:46:15;99668.75;;;2.22;48.06
52319;BME280;38258;51.148;14.068;2024-01-10T12:48:42;99668.63;;;2.17;49.00